createdAt,value
2022-12-12T00:00:45.559Z,-0.10
2022-12-12T00:03:13.265Z,-0.10
2022-12-12T00:05:41.658Z,0.00
2022-12-12T00:08:09.156Z,0.00
2022-12-12T00:10:37.147Z,0.10
2022-12-12T00:13:04.511Z,0.00
2022-12-12T00:15:32.153Z,0.00
2022-12-12T00:17:59.587Z,0.00
2022-12-12T00:20:26.986Z,0.10
2022-12-12T00:22:54.349Z,0.10
2022-12-12T00:25:21.675Z,0.00
2022-12-12T00:27:49.514Z,0.10
2022-12-12T00:30:17.218Z,0.00
2022-12-12T00:32:44.593Z,0.00
2022-12-12T00:35:12.579Z,0.00
2022-12-12T00:37:40.223Z,-0.10
2022-12-12T00:40:08.308Z,0.00
2022-12-12T00:42:35.753Z,0.00
2022-12-12T00:45:03.332Z,-0.10
2022-12-12T00:47:30.711Z,0.00
2022-12-12T00:49:58.043Z,0.00
2022-12-12T00:52:25.412Z,0.00
2022-12-12T00:54:52.793Z,-0.10
2022-12-12T00:57:20.120Z,-0.10
2022-12-12T00:59:47.654Z,-0.10
2022-12-12T01:02:15.014Z,-0.10
2022-12-12T01:04:42.372Z,-0.20
2022-12-12T01:07:09.791Z,-0.10
2022-12-12T01:09:37.161Z,-0.20
2022-12-12T01:12:04.652Z,-0.20
2022-12-12T01:14:32.035Z,-0.30
2022-12-12T01:16:59.382Z,-0.30
2022-12-12T01:19:26.774Z,-0.30
2022-12-12T01:21:54.112Z,-0.30
2022-12-12T01:24:21.541Z,-0.30
2022-12-12T01:26:49.325Z,-0.30
2022-12-12T01:29:16.687Z,-0.40
2022-12-12T01:31:44.094Z,-0.50
2022-12-12T01:34:11.968Z,-0.40
2022-12-12T01:36:42.308Z,-0.50
2022-12-12T01:39:09.876Z,-0.50
2022-12-12T01:41:37.684Z,-0.50
2022-12-12T01:44:27.570Z,-0.60
2022-12-12T01:46:55.029Z,-0.70
2022-12-12T01:49:27.360Z,-0.70
2022-12-12T01:52:00.611Z,-0.80
2022-12-12T01:54:32.573Z,-0.80
2022-12-12T01:57:03.729Z,-0.80
2022-12-12T01:59:33.652Z,-0.80
2022-12-12T02:02:01.240Z,-0.80
2022-12-12T02:04:28.763Z,-0.90
2022-12-12T02:06:57.353Z,-0.90
2022-12-12T02:09:25.871Z,-1.00
2022-12-12T02:11:56.687Z,-0.90
2022-12-12T02:14:34.037Z,-0.80
2022-12-12T02:17:14.588Z,-0.80
2022-12-12T02:20:09.735Z,-0.70
2022-12-12T02:22:58.607Z,-0.90
2022-12-12T02:25:29.190Z,-0.80
2022-12-12T02:28:24.194Z,-0.90
2022-12-12T02:31:09.409Z,-0.90
2022-12-12T02:33:45.695Z,-0.90
2022-12-12T02:36:25.832Z,-0.90
2022-12-12T02:38:56.079Z,-0.80
2022-12-12T02:41:42.993Z,-0.80
2022-12-12T02:44:42.250Z,-0.80
2022-12-12T02:47:26.635Z,-0.80
2022-12-12T02:50:09.478Z,-0.70
2022-12-12T02:52:37.233Z,-0.80
2022-12-12T02:55:08.108Z,-0.80
2022-12-12T02:57:36.287Z,-0.70
2022-12-12T03:00:08.504Z,-0.80
2022-12-12T03:03:19.267Z,-0.80
2022-12-12T03:06:24.279Z,-1.00
2022-12-12T03:09:19.776Z,-1.00
2022-12-12T03:12:03.542Z,-1.00
2022-12-12T03:14:51.164Z,-1.00
2022-12-12T03:17:30.412Z,-0.90
2022-12-12T03:20:06.505Z,-0.90
2022-12-12T03:22:48.993Z,-1.00
2022-12-12T03:25:36.795Z,-0.90
2022-12-12T03:28:11.197Z,-0.90
2022-12-12T03:30:44.223Z,-0.90
2022-12-12T03:33:25.714Z,-1.00
2022-12-12T03:36:03.300Z,-0.90
2022-12-12T03:38:35.130Z,-0.90
2022-12-12T03:41:06.941Z,-0.90
2022-12-12T03:43:57.883Z,-1.00
2022-12-12T03:46:31.801Z,-1.10
2022-12-12T03:49:02.963Z,-1.10
2022-12-12T03:51:33.331Z,-1.00
2022-12-12T03:54:12.452Z,-0.90
2022-12-12T03:56:58.720Z,-0.90
2022-12-12T03:59:38.686Z,-0.90
2022-12-12T04:02:22.528Z,-0.90
2022-12-12T04:05:07.771Z,-0.90
2022-12-12T04:07:43.445Z,-0.80
2022-12-12T04:10:30.262Z,-0.90
2022-12-12T04:13:30.356Z,-0.90
2022-12-12T04:16:05.975Z,-0.90
2022-12-12T04:18:58.411Z,-0.80
2022-12-12T04:21:52.079Z,-0.70
2022-12-12T04:24:45.284Z,-0.70
2022-12-12T04:27:23.662Z,-0.90
2022-12-12T04:30:06.939Z,-0.80
2022-12-12T04:32:57.226Z,-0.90
2022-12-12T04:35:44.261Z,-0.80
2022-12-12T04:38:19.237Z,-0.80
2022-12-12T04:40:51.674Z,-0.70
2022-12-12T04:43:36.300Z,-0.90
2022-12-12T04:46:06.940Z,-0.80
2022-12-12T04:48:43.977Z,-0.80
2022-12-12T04:51:16.583Z,-0.90
2022-12-12T04:53:49.911Z,-0.90
2022-12-12T04:56:23.782Z,-0.80
2022-12-12T04:58:51.278Z,-0.80
2022-12-12T05:01:43.526Z,-0.80
2022-12-12T05:04:23.493Z,-0.80
2022-12-12T05:06:56.548Z,-0.80
2022-12-12T05:09:24.302Z,-0.70
2022-12-12T05:11:51.746Z,-0.80
2022-12-12T05:14:20.032Z,-0.80
2022-12-12T05:16:54.294Z,-0.80
2022-12-12T05:19:21.763Z,-0.90
2022-12-12T05:21:49.274Z,-0.90
2022-12-12T05:24:16.638Z,-0.90
2022-12-12T05:26:44.093Z,-0.90
2022-12-12T05:29:11.693Z,-0.80
2022-12-12T05:31:39.254Z,-0.90
2022-12-12T05:34:06.636Z,-0.90
2022-12-12T05:36:33.993Z,-1.10
2022-12-12T05:39:01.315Z,-1.10
2022-12-12T05:41:28.777Z,-1.10
2022-12-12T05:43:56.133Z,-1.10
2022-12-12T05:46:23.516Z,-1.10
2022-12-12T05:48:51.617Z,-1.00
2022-12-12T05:51:19.596Z,-1.10
2022-12-12T05:53:47.457Z,-1.20
2022-12-12T05:56:14.923Z,-1.10
2022-12-12T05:58:43.068Z,-1.10
2022-12-12T06:01:10.969Z,-1.10
2022-12-12T06:03:38.528Z,-1.00
2022-12-12T06:06:06.216Z,-1.00
2022-12-12T06:08:33.793Z,-0.90
2022-12-12T06:11:04.124Z,-0.90
2022-12-12T06:13:31.585Z,-1.00
2022-12-12T06:15:58.943Z,-0.90
2022-12-12T06:18:26.484Z,-1.20
2022-12-12T06:21:05.954Z,-1.20
2022-12-12T06:23:42.602Z,-1.20
2022-12-12T06:26:12.210Z,-1.30
2022-12-12T06:28:41.574Z,-1.40
2022-12-12T06:31:12.083Z,-1.30
2022-12-12T06:33:43.737Z,-1.50
2022-12-12T06:36:23.727Z,-1.50
2022-12-12T06:38:52.224Z,-1.50
2022-12-12T06:41:20.571Z,-1.50
2022-12-12T06:43:48.040Z,-1.50
2022-12-12T06:46:18.262Z,-1.50
2022-12-12T06:48:45.793Z,-1.40
2022-12-12T06:51:20.340Z,-1.50
2022-12-12T06:53:48.471Z,-1.70
2022-12-12T06:56:19.233Z,-1.70
2022-12-12T06:58:47.050Z,-1.70
2022-12-12T07:01:16.296Z,-1.70
2022-12-12T07:03:43.684Z,-1.60
2022-12-12T07:06:11.220Z,-1.60
2022-12-12T07:08:38.955Z,-1.70
2022-12-12T07:11:15.278Z,-1.60
2022-12-12T07:13:42.776Z,-1.60
2022-12-12T07:16:10.466Z,-1.60
2022-12-12T07:18:38.104Z,-1.60
2022-12-12T07:21:07.459Z,-1.60
2022-12-12T07:23:35.312Z,-1.60
2022-12-12T07:26:07.294Z,-1.60
2022-12-12T07:28:34.880Z,-1.80
2022-12-12T07:31:07.433Z,-1.70
2022-12-12T07:33:42.997Z,-1.70
2022-12-12T07:36:13.467Z,-1.60
2022-12-12T07:38:41.861Z,-1.50
2022-12-12T07:41:12.467Z,-1.60
2022-12-12T07:43:44.087Z,-1.50
2022-12-12T07:46:16.028Z,-1.40
2022-12-12T07:48:43.698Z,-1.30
2022-12-12T07:51:11.086Z,-1.30
2022-12-12T07:53:38.524Z,-1.20
2022-12-12T07:56:10.653Z,-1.20
2022-12-12T07:58:38.771Z,-1.20
2022-12-12T08:01:21.615Z,-1.30
2022-12-12T08:03:49.983Z,-1.30
2022-12-12T08:06:18.403Z,-1.20
2022-12-12T08:08:46.905Z,-1.30
2022-12-12T08:11:17.199Z,-1.10
2022-12-12T08:13:44.971Z,-1.10
2022-12-12T08:16:21.351Z,-0.90
2022-12-12T08:18:49.803Z,-0.80
2022-12-12T08:21:24.863Z,-0.80
2022-12-12T08:24:00.946Z,-0.80
2022-12-12T08:26:29.272Z,-0.70
2022-12-12T08:28:57.319Z,-0.80
2022-12-12T08:31:25.301Z,-0.70
2022-12-12T08:33:53.365Z,-0.80
2022-12-12T08:36:30.373Z,-0.70
2022-12-12T08:39:02.076Z,-0.60
2022-12-12T08:41:29.497Z,-0.60
2022-12-12T08:43:56.926Z,-0.40
2022-12-12T08:46:27.223Z,-0.40
2022-12-12T08:48:54.897Z,-0.30
2022-12-12T08:51:22.355Z,-0.40
2022-12-12T08:53:51.681Z,-0.40
2022-12-12T08:56:20.609Z,-0.50
2022-12-12T08:58:48.560Z,-0.50
2022-12-12T09:01:21.824Z,-0.70
2022-12-12T09:03:50.896Z,-0.60
2022-12-12T09:06:19.411Z,-0.40
2022-12-12T09:08:47.251Z,-0.30
2022-12-12T09:11:15.622Z,-0.30
2022-12-12T09:13:44.139Z,-0.20
2022-12-12T09:16:12.411Z,-0.10
2022-12-12T09:18:46.377Z,-0.10
2022-12-12T09:21:16.966Z,-0.10
2022-12-12T09:23:44.624Z,-0.30
2022-12-12T09:26:12.346Z,-0.30
2022-12-12T09:28:40.244Z,-0.20
2022-12-12T09:31:09.007Z,-0.30
2022-12-12T09:33:36.944Z,-0.20
2022-12-12T09:36:07.357Z,-0.20
2022-12-12T09:38:35.830Z,-0.20
2022-12-12T09:41:09.219Z,0.00
2022-12-12T09:43:53.158Z,-0.20
2022-12-12T09:46:35.072Z,0.10
2022-12-12T09:49:28.539Z,0.40
2022-12-12T09:51:57.453Z,0.30
2022-12-12T09:54:27.217Z,0.30
2022-12-12T09:57:10.816Z,0.40
2022-12-12T09:59:49.358Z,0.40
2022-12-12T10:02:22.597Z,0.50
2022-12-12T10:04:58.581Z,0.60
2022-12-12T10:07:37.487Z,0.40
2022-12-12T10:10:17.950Z,0.70
2022-12-12T10:12:46.680Z,0.90
2022-12-12T10:15:37.056Z,0.60
2022-12-12T10:18:12.672Z,0.40
2022-12-12T10:20:48.940Z,0.20
2022-12-12T10:23:32.568Z,0.10
2022-12-12T10:26:06.183Z,0.10
2022-12-12T10:28:34.853Z,0.20
2022-12-12T10:31:24.173Z,0.10
2022-12-12T10:34:01.629Z,0.10
2022-12-12T10:36:47.779Z,-0.10
2022-12-12T10:39:35.157Z,0.00
2022-12-12T10:42:06.700Z,0.00
2022-12-12T10:44:37.136Z,0.20
2022-12-12T10:47:08.920Z,0.30
2022-12-12T10:49:37.096Z,0.20
2022-12-12T10:52:11.735Z,0.10
2022-12-12T10:54:52.279Z,0.00
2022-12-12T10:57:37.888Z,0.10
2022-12-12T11:00:25.653Z,0.30
2022-12-12T11:03:00.109Z,0.30
2022-12-12T11:05:36.056Z,0.30
2022-12-12T11:08:24.659Z,0.40
2022-12-12T11:11:15.095Z,0.20
2022-12-12T11:13:47.438Z,0.00
2022-12-12T11:16:24.458Z,0.20
2022-12-12T11:18:59.868Z,0.40
2022-12-12T11:21:29.103Z,0.20
2022-12-12T11:23:57.995Z,0.30
2022-12-12T11:26:28.345Z,0.20
2022-12-12T11:29:01.434Z,0.60
2022-12-12T11:31:34.268Z,0.60
2022-12-12T11:34:05.599Z,0.80
2022-12-12T11:36:37.363Z,0.50
2022-12-12T11:39:42.449Z,0.60
2022-12-12T11:42:30.568Z,0.90
2022-12-12T11:45:02.613Z,0.90
2022-12-12T11:47:52.140Z,1.00
2022-12-12T11:50:29.674Z,1.00
2022-12-12T11:53:01.527Z,1.20
2022-12-12T11:56:06.952Z,1.20
2022-12-12T11:58:39.825Z,1.00
2022-12-12T12:01:19.501Z,1.00
2022-12-12T12:03:53.934Z,0.60
2022-12-12T12:06:27.347Z,0.70
2022-12-12T12:09:26.140Z,0.50
2022-12-12T12:12:11.631Z,0.70
2022-12-12T12:14:42.119Z,0.30
2022-12-12T12:17:25.265Z,0.40
2022-12-12T12:20:09.340Z,0.30
2022-12-12T12:23:02.987Z,0.30
2022-12-12T12:25:47.994Z,0.20
2022-12-12T12:28:27.104Z,0.10
2022-12-12T12:31:27.474Z,-0.10
2022-12-12T12:34:28.006Z,0.20
2022-12-12T12:36:58.435Z,0.30
2022-12-12T12:39:38.092Z,0.20
2022-12-12T12:42:30.512Z,-0.10
2022-12-12T12:45:20.901Z,0.00
2022-12-12T12:48:07.191Z,-0.20
2022-12-12T12:50:43.656Z,-0.30
2022-12-12T12:53:30.222Z,-0.20
2022-12-12T12:56:03.212Z,-0.40
2022-12-12T12:58:42.855Z,-0.30
2022-12-12T13:01:16.719Z,-0.10
2022-12-12T13:04:07.948Z,0.10
2022-12-12T13:06:46.245Z,0.10
2022-12-12T13:09:41.147Z,-0.10
2022-12-12T13:12:35.754Z,-0.20
2022-12-12T13:15:24.765Z,-0.20
2022-12-12T13:18:13.545Z,-0.30
2022-12-12T13:20:49.562Z,-0.20
2022-12-12T13:23:47.836Z,-0.20
2022-12-12T13:26:15.217Z,-0.30
2022-12-12T13:28:51.800Z,-0.30
2022-12-12T13:31:33.414Z,-0.20
2022-12-12T13:34:11.833Z,-0.10
2022-12-12T13:36:43.849Z,-0.30
2022-12-12T13:39:30.438Z,-0.30
2022-12-12T13:42:07.004Z,-0.30
2022-12-12T13:44:45.174Z,-0.50
2022-12-12T13:47:24.864Z,-0.60
2022-12-12T13:49:58.623Z,-0.60
2022-12-12T13:52:33.353Z,-0.70
2022-12-12T13:55:12.981Z,-0.60
2022-12-12T13:58:05.897Z,-0.60
2022-12-12T14:00:39.139Z,-0.70
2022-12-12T14:03:12.513Z,-0.70
2022-12-12T14:05:51.141Z,-0.70
2022-12-12T14:08:18.526Z,-0.70
2022-12-12T14:10:45.909Z,-0.70
2022-12-12T14:13:23.814Z,-0.70
2022-12-12T14:16:19.513Z,-0.80
2022-12-12T14:18:49.631Z,-0.80
2022-12-12T14:21:20.011Z,-0.70
2022-12-12T14:23:50.512Z,-0.90
2022-12-12T14:26:29.754Z,-0.80
2022-12-12T14:29:15.834Z,-0.80
2022-12-12T14:31:53.480Z,-0.80
2022-12-12T14:34:36.869Z,-0.90
2022-12-12T14:37:04.245Z,-1.00
2022-12-12T14:39:46.503Z,-0.90
2022-12-12T14:43:21.066Z,-1.00
2022-12-12T14:45:27.482Z,-0.80
2022-12-12T14:48:30.136Z,-0.80
2022-12-12T14:51:06.293Z,-0.70
2022-12-12T14:53:43.596Z,-0.80
2022-12-12T14:56:19.977Z,-0.70
2022-12-12T14:58:58.346Z,-0.70
2022-12-12T15:01:34.360Z,-0.80
2022-12-12T15:04:09.421Z,-0.90
2022-12-12T15:06:44.737Z,-0.80
2022-12-12T15:09:16.978Z,-0.80
2022-12-12T15:11:46.217Z,-0.90
2022-12-12T15:14:31.378Z,-0.90
2022-12-12T15:17:23.834Z,-0.70
2022-12-12T15:19:53.838Z,-0.80
2022-12-12T15:22:28.145Z,-0.90
2022-12-12T15:24:58.278Z,-0.90
2022-12-12T15:27:40.005Z,-1.00
2022-12-12T15:30:39.341Z,-0.80
2022-12-12T15:33:15.226Z,-0.90
2022-12-12T15:35:56.372Z,-0.90
2022-12-12T15:38:28.264Z,-0.90
2022-12-12T15:40:59.264Z,-0.90
2022-12-12T15:43:29.294Z,-0.80
2022-12-12T15:46:00.214Z,-0.80
2022-12-12T15:48:27.818Z,-0.80
2022-12-12T15:50:57.294Z,-0.80
2022-12-12T15:53:30.049Z,-0.80
2022-12-12T15:56:20.127Z,-0.90
2022-12-12T15:59:08.981Z,-0.90
2022-12-12T16:01:36.504Z,-0.90
2022-12-12T16:04:20.848Z,-0.90
2022-12-12T16:06:49.226Z,-0.90
2022-12-12T16:09:22.216Z,-0.80
2022-12-12T16:11:58.870Z,-0.80
2022-12-12T16:14:41.225Z,-0.80
2022-12-12T16:17:25.607Z,-0.80
2022-12-12T16:19:55.197Z,-0.80
2022-12-12T16:22:43.793Z,-0.90
2022-12-12T16:25:23.746Z,-0.90
2022-12-12T16:27:58.865Z,-0.90
2022-12-12T16:30:27.134Z,-0.90
2022-12-12T16:32:55.015Z,-0.90
2022-12-12T16:35:25.359Z,-0.80
2022-12-12T16:37:53.555Z,-0.70
2022-12-12T16:40:21.647Z,-0.70
2022-12-12T16:43:04.760Z,-0.80
2022-12-12T16:45:35.387Z,-0.80
2022-12-12T16:48:21.202Z,-0.80
2022-12-12T16:50:50.484Z,-0.90
2022-12-12T16:53:18.578Z,-0.90
2022-12-12T16:55:48.500Z,-0.90
2022-12-12T16:58:16.579Z,-0.90
2022-12-12T17:00:44.744Z,-0.90
2022-12-12T17:03:14.606Z,-0.80
2022-12-12T17:05:43.304Z,-0.80
2022-12-12T17:08:11.401Z,-0.90
2022-12-12T17:10:39.874Z,-0.90
2022-12-12T17:13:12.681Z,-1.00
2022-12-12T17:15:40.118Z,-0.90
2022-12-12T17:18:07.707Z,-0.90
2022-12-12T17:20:37.443Z,-1.00
2022-12-12T17:25:57.414Z,-1.00
2022-12-12T17:28:32.857Z,-1.00
2022-12-12T17:31:02.620Z,-1.00
2022-12-12T17:33:30.455Z,-1.00
2022-12-12T17:36:06.279Z,-1.10
2022-12-12T17:38:35.454Z,-0.90
2022-12-12T17:41:05.080Z,-1.00
2022-12-12T17:43:32.685Z,-0.90
2022-12-12T17:46:04.225Z,-1.00
2022-12-12T17:48:34.090Z,-1.00
2022-12-12T17:51:05.407Z,-1.00
2022-12-12T17:53:39.315Z,-1.10
2022-12-12T17:56:25.816Z,-1.10
2022-12-12T17:58:54.655Z,-1.00
2022-12-12T18:01:28.272Z,-1.10
2022-12-12T18:03:57.689Z,-1.00
2022-12-12T18:06:26.340Z,-1.00
2022-12-12T18:08:54.753Z,-1.10
2022-12-12T18:11:28.912Z,-1.10
2022-12-12T18:13:58.587Z,-1.10
2022-12-12T18:16:29.889Z,-1.10
2022-12-12T18:18:58.468Z,-1.20
2022-12-12T18:24:21.604Z,-1.20
2022-12-12T18:26:54.422Z,-1.10
2022-12-12T18:29:23.390Z,-1.10
2022-12-12T18:31:51.710Z,-1.10
2022-12-12T18:34:20.055Z,-1.20
2022-12-12T18:36:49.394Z,-1.10
2022-12-12T18:39:17.924Z,-1.10
2022-12-12T18:41:46.668Z,-1.20
2022-12-12T18:44:16.089Z,-1.20
2022-12-12T18:46:44.171Z,-1.30
2022-12-12T18:49:16.886Z,-1.30
2022-12-12T18:51:46.178Z,-1.20
2022-12-12T18:54:16.402Z,-1.20
2022-12-12T18:56:51.282Z,-1.20
2022-12-12T18:59:20.514Z,-1.20
2022-12-12T19:01:48.890Z,-1.30
2022-12-12T19:04:22.956Z,-1.30
2022-12-12T19:06:52.813Z,-1.20
2022-12-12T19:09:22.342Z,-1.10
2022-12-12T19:11:58.247Z,-1.10
2022-12-12T19:15:15.137Z,-1.10
2022-12-12T19:17:25.826Z,-1.10
2022-12-12T19:19:55.251Z,-1.20
2022-12-12T19:25:12.481Z,-1.10
2022-12-12T19:27:41.068Z,-1.10
2022-12-12T19:30:16.291Z,-1.10
2022-12-12T19:32:49.384Z,-1.10
2022-12-12T19:35:18.430Z,-1.10
2022-12-12T19:37:49.078Z,-1.00
2022-12-12T19:40:18.272Z,-0.90
2022-12-12T19:42:47.469Z,-0.90
2022-12-12T19:45:17.258Z,-0.90
2022-12-12T19:47:45.645Z,-1.10
2022-12-12T19:50:14.247Z,-1.00
2022-12-12T19:52:42.957Z,-1.10
2022-12-12T19:55:11.190Z,-1.00
2022-12-12T19:57:39.778Z,-1.00
2022-12-12T20:00:11.861Z,-1.10
2022-12-12T20:02:41.092Z,-1.10
2022-12-12T20:05:10.567Z,-1.20
2022-12-12T20:07:38.994Z,-1.20
2022-12-12T20:10:07.571Z,-1.20
2022-12-12T20:12:35.720Z,-1.20
2022-12-12T20:15:04.622Z,-1.20
2022-12-12T20:17:35.689Z,-1.30
2022-12-12T20:20:05.571Z,-1.20
2022-12-12T20:22:34.050Z,-1.30
2022-12-12T20:25:02.545Z,-1.40
2022-12-12T20:27:32.114Z,-1.40
2022-12-12T20:30:00.916Z,-1.40
2022-12-12T20:32:29.873Z,-1.50
2022-12-12T20:34:58.202Z,-1.50
2022-12-12T20:37:27.064Z,-1.50
2022-12-12T20:39:55.434Z,-1.40
2022-12-12T20:42:23.437Z,-1.50
2022-12-12T20:44:52.798Z,-1.60
2022-12-12T20:47:22.969Z,-1.70
2022-12-12T20:49:52.823Z,-1.60
2022-12-12T20:52:20.776Z,-1.60
2022-12-12T20:54:48.433Z,-1.60
2022-12-12T20:57:16.386Z,-1.60
2022-12-12T20:59:44.658Z,-1.60
2022-12-12T21:02:12.886Z,-1.60
2022-12-12T21:04:40.509Z,-1.60
2022-12-12T21:07:08.295Z,-1.70
2022-12-12T21:09:36.066Z,-1.70
2022-12-12T21:12:03.745Z,-1.70
2022-12-12T21:14:33.071Z,-1.70
2022-12-12T21:17:00.920Z,-1.70
2022-12-12T21:19:28.666Z,-1.60
2022-12-12T21:21:56.387Z,-1.70
2022-12-12T21:24:23.984Z,-1.70
2022-12-12T21:26:51.536Z,-1.70
2022-12-12T21:29:19.184Z,-1.70
2022-12-12T21:31:51.453Z,-1.70
2022-12-12T21:34:22.180Z,-1.70
2022-12-12T21:36:54.726Z,-1.70
2022-12-12T21:39:27.096Z,-1.70
2022-12-12T21:41:55.697Z,-1.70
2022-12-12T21:44:23.727Z,-1.70
2022-12-12T21:46:51.475Z,-1.70
2022-12-12T21:49:28.674Z,-1.70
2022-12-12T21:52:03.807Z,-1.70
2022-12-12T21:54:31.785Z,-1.70
2022-12-12T21:57:00.131Z,-1.60
2022-12-12T21:59:27.737Z,-1.70
2022-12-12T22:01:56.784Z,-1.70
2022-12-12T22:04:24.396Z,-1.70
2022-12-12T22:06:51.931Z,-1.70
2022-12-12T22:09:19.331Z,-1.70
2022-12-12T22:11:49.434Z,-1.70
2022-12-12T22:14:21.764Z,-1.70
2022-12-12T22:16:49.895Z,-1.80
2022-12-12T22:19:20.046Z,-1.80
2022-12-12T22:21:49.256Z,-1.80
2022-12-12T22:24:17.404Z,-1.90
2022-12-12T22:26:50.099Z,-2.00
2022-12-12T22:29:20.106Z,-2.00
2022-12-12T22:31:50.053Z,-1.90
2022-12-12T22:34:23.799Z,-2.00
2022-12-12T22:36:53.269Z,-1.90
2022-12-12T22:39:25.348Z,-1.90
2022-12-12T22:41:55.411Z,-2.00
2022-12-12T22:44:24.482Z,-1.90
2022-12-12T22:46:53.891Z,-2.00
2022-12-12T22:49:25.772Z,-2.00
2022-12-12T22:51:55.139Z,-2.00
2022-12-12T22:54:22.770Z,-2.00
2022-12-12T22:56:50.402Z,-2.00
2022-12-12T22:59:17.836Z,-2.00
2022-12-12T23:01:45.269Z,-2.00
2022-12-12T23:04:13.571Z,-2.10
2022-12-12T23:06:42.711Z,-2.20
2022-12-12T23:09:19.577Z,-2.20
2022-12-12T23:11:47.211Z,-2.20
2022-12-12T23:14:17.543Z,-2.20
2022-12-12T23:16:45.567Z,-2.20
2022-12-12T23:19:15.947Z,-2.20
2022-12-12T23:21:43.921Z,-2.40
2022-12-12T23:24:12.286Z,-2.40
2022-12-12T23:26:40.036Z,-2.50
2022-12-12T23:29:11.216Z,-2.50
2022-12-12T23:31:39.025Z,-2.50
2022-12-12T23:34:09.323Z,-2.60
2022-12-12T23:36:36.829Z,-2.60
2022-12-12T23:39:06.881Z,-2.60
2022-12-12T23:41:36.699Z,-2.60
2022-12-12T23:44:05.529Z,-2.60
2022-12-12T23:46:33.758Z,-2.70
2022-12-12T23:49:23.798Z,-2.70
2022-12-12T23:51:56.381Z,-2.60
2022-12-12T23:54:32.106Z,-2.70
2022-12-12T23:56:59.839Z,-2.70
2022-12-12T23:59:27.740Z,-2.70
